Time;durP1;ratioP1;P1;durP2;ratioP2;P2;SDS_P1;SDS_P2;PMS_P1;PMS_P2;Temp;Humidity;BMP_temperature;BMP_pressure;BME280_temperature;BME280_humidity;BME280_pressure;Samples;Min_cycle;Max_cycle;Signal;HPM_P1;HPM_P2
2023/01/11 00:00:10;;;;;;;2.55;1.58;;;10.10;99.90;;;;;;5082277;28;20027;-38
2023/01/11 00:02:36;;;;;;;2.75;1.40;;;10.20;99.90;;;;;;5083345;28;20028;-36
2023/01/11 00:05:02;;;;;;;2.20;1.50;;;10.20;99.90;;;;;;5082058;28;20653;-39
2023/01/11 00:07:28;;;;;;;1.50;1.40;;;10.30;99.90;;;;;;5083573;28;20039;-39
2023/01/11 00:09:53;;;;;;;1.95;1.20;;;10.30;99.90;;;;;;5083036;28;20016;-35
2023/01/11 00:12:19;;;;;;;1.40;1.30;;;10.30;99.90;;;;;;5081994;28;20028;-38
2023/01/11 00:14:44;;;;;;;2.67;1.80;;;10.30;99.90;;;;;;5083440;28;20031;-38
2023/01/11 00:17:10;;;;;;;3.10;1.70;;;10.30;99.90;;;;;;5082220;28;20556;-38
2023/01/11 00:19:35;;;;;;;3.85;1.90;;;10.40;99.90;;;;;;5082676;28;20036;-36
2023/01/11 00:22:01;;;;;;;2.15;1.65;;;10.40;99.90;;;;;;5082729;28;20028;-39
2023/01/11 00:24:26;;;;;;;2.47;1.65;;;10.40;99.90;;;;;;5083067;28;20145;-39
2023/01/11 00:26:52;;;;;;;2.58;1.60;;;10.50;99.90;;;;;;5082305;28;20036;-38
2023/01/11 00:29:17;;;;;;;2.03;1.55;;;10.50;99.90;;;;;;5082566;28;20066;-38
2023/01/11 00:31:43;;;;;;;5.00;1.83;;;10.50;99.90;;;;;;5082601;28;20121;-38
2023/01/11 00:34:08;;;;;;;1.95;1.50;;;10.50;99.90;;;;;;5081705;28;20028;-39
2023/01/11 00:36:34;;;;;;;2.08;1.80;;;10.50;99.90;;;;;;5082987;28;20038;-37
2023/01/11 00:39:00;;;;;;;2.80;1.70;;;10.50;99.90;;;;;;5082300;28;20028;-35
2023/01/11 00:49:40;;;;;;;3.75;1.90;;;10.60;99.90;;;;;;5083181;28;20042;-34
2023/01/11 00:52:07;;;;;;;2.67;1.85;;;10.60;99.90;;;;;;5082622;28;20028;-38
2023/01/11 00:54:34;;;;;;;2.22;1.50;;;10.60;99.90;;;;;;5085762;28;20043;-39
2023/01/11 00:57:00;;;;;;;2.13;1.60;;;10.60;99.90;;;;;;5085707;28;20039;-38
2023/01/11 00:59:26;;;;;;;2.38;1.52;;;10.60;99.90;;;;;;5087371;28;20239;-38
2023/01/11 01:01:51;;;;;;;3.33;1.70;;;10.60;99.90;;;;;;5085898;28;20119;-39
2023/01/11 01:04:17;;;;;;;2.28;1.60;;;10.70;99.90;;;;;;5086282;28;20126;-39
2023/01/11 01:06:43;;;;;;;2.50;1.73;;;10.70;99.90;;;;;;5087195;28;20064;-38
2023/01/11 01:09:08;;;;;;;2.50;1.60;;;10.70;99.90;;;;;;5085849;28;20467;-38
2023/01/11 01:11:34;;;;;;;2.47;1.50;;;10.70;99.90;;;;;;5087226;28;20035;-37
2023/01/11 01:16:46;;;;;;;3.90;1.80;;;10.70;99.90;;;;;;5085882;28;20396;-38
2023/01/11 01:19:12;;;;;;;2.83;1.60;;;10.70;99.90;;;;;;5085817;28;20020;-38
2023/01/11 01:21:38;;;;;;;1.60;1.40;;;10.70;99.90;;;;;;5086142;28;20416;-38
2023/01/11 01:24:04;;;;;;;3.13;1.60;;;10.70;99.90;;;;;;5084935;28;20103;-38
2023/01/11 01:26:29;;;;;;;2.85;1.30;;;10.70;99.90;;;;;;5086827;28;20024;-36
2023/01/11 01:28:55;;;;;;;1.75;1.30;;;10.70;99.90;;;;;;5086319;28;20486;-38
2023/01/11 01:31:21;;;;;;;1.60;1.35;;;10.80;99.90;;;;;;5084676;28;20598;-37
2023/01/11 01:33:46;;;;;;;1.48;1.35;;;10.80;99.90;;;;;;5086181;28;20036;-38
2023/01/11 01:36:12;;;;;;;1.73;1.20;;;10.80;99.90;;;;;;5084411;28;20028;-37
2023/01/11 01:38:37;;;;;;;1.42;1.20;;;10.80;99.90;;;;;;5086016;28;20020;-36
2023/01/11 01:41:03;;;;;;;1.45;1.20;;;10.90;99.90;;;;;;5085525;28;20033;-39
2023/01/11 01:43:51;;;;;;;2.15;1.20;;;10.80;99.90;;;;;;5084886;28;20111;-39
2023/01/11 01:46:17;;;;;;;1.10;1.10;;;10.90;99.90;;;;;;5085737;28;20035;-39
2023/01/11 01:48:49;;;;;;;1.95;1.02;;;10.80;99.90;;;;;;5086254;28;20035;-38
2023/01/11 01:51:21;;;;;;;1.60;1.00;;;10.90;99.90;;;;;;5083872;28;20038;-37
2023/01/11 01:53:50;;;;;;;1.25;1.13;;;10.90;99.90;;;;;;5077997;28;20024;-37
2023/01/11 01:56:23;;;;;;;1.45;1.00;;;10.90;99.90;;;;;;5085233;28;20137;-36
2023/01/11 01:58:55;;;;;;;1.23;0.90;;;10.90;99.90;;;;;;5085162;28;20080;-40
2023/01/11 02:04:17;;;;;;;0.95;0.90;;;10.90;99.90;;;;;;5085371;28;20479;-33
2023/01/11 02:06:42;;;;;;;2.25;0.90;;;11.00;99.90;;;;;;5085266;28;20032;-37
2023/01/11 02:09:20;;;;;;;1.33;0.90;;;10.90;99.90;;;;;;5084616;28;20058;-37
2023/01/11 02:11:46;;;;;;;1.30;0.85;;;10.90;99.90;;;;;;5085418;28;20057;-38
2023/01/11 02:14:15;;;;;;;2.15;1.00;;;10.90;99.90;;;;;;5084672;28;20024;-34
2023/01/11 02:16:40;;;;;;;1.30;0.80;;;10.90;99.90;;;;;;5074517;28;20032;-40
2023/01/11 02:19:37;;;;;;;0.80;0.50;;;11.00;99.90;;;;;;5084110;28;21356;-38
2023/01/11 02:22:33;;;;;;;1.02;0.60;;;11.00;99.90;;;;;;5073209;28;20032;-37
2023/01/11 02:25:14;;;;;;;0.70;0.70;;;11.00;99.90;;;;;;5084765;28;20016;-39
2023/01/11 02:27:57;;;;;;;1.88;0.80;;;10.90;99.90;;;;;;5084868;28;20031;-38
2023/01/11 02:30:53;;;;;;;1.00;0.70;;;11.00;99.90;;;;;;5085151;28;20031;-39
2023/01/11 02:33:35;;;;;;;2.63;0.80;;;11.00;99.90;;;;;;5083912;28;20617;-39
2023/01/11 02:36:33;;;;;;;0.85;0.68;;;11.00;99.90;;;;;;5084108;28;20054;-39
2023/01/11 02:39:41;;;;;;;0.70;0.60;;;11.00;99.90;;;;;;5064723;28;20098;-38
2023/01/11 02:45:41;;;;;;;0.75;0.70;;;11.00;99.90;;;;;;5002939;28;20048;-40
2023/01/11 02:48:33;;;;;;;1.50;0.88;;;11.10;99.90;;;;;;5000823;28;20026;-37
2023/01/11 02:51:14;;;;;;;0.75;0.60;;;11.00;99.90;;;;;;5071892;28;20040;-39
2023/01/11 02:53:58;;;;;;;0.70;0.68;;;11.10;99.90;;;;;;5084126;28;20862;-38
2023/01/11 02:56:30;;;;;;;0.60;0.60;;;11.10;99.90;;;;;;5084108;28;20119;-38
2023/01/11 02:58:57;;;;;;;0.70;0.70;;;11.10;99.90;;;;;;5084734;28;20058;-39
2023/01/11 03:01:26;;;;;;;0.80;0.80;;;11.10;99.90;;;;;;5083656;28;20657;-38
2023/01/11 03:03:52;;;;;;;1.08;0.70;;;11.20;99.90;;;;;;5084466;28;20016;-38
2023/01/11 03:06:20;;;;;;;0.70;0.70;;;11.20;99.90;;;;;;5083435;28;20043;-38
2023/01/11 03:09:23;;;;;;;0.70;0.70;;;11.20;99.90;;;;;;5083414;28;20020;-39
2023/01/11 03:14:49;;;;;;;1.30;0.85;;;11.20;99.90;;;;;;5083276;28;20042;-39
2023/01/11 03:17:32;;;;;;;0.70;0.70;;;11.20;99.90;;;;;;5082943;28;20051;-39
2023/01/11 03:20:27;;;;;;;1.40;0.90;;;11.30;99.90;;;;;;5083830;28;20107;-39
2023/01/11 03:23:10;;;;;;;0.70;0.70;;;11.30;99.90;;;;;;5083322;28;20024;-39
2023/01/11 03:26:01;;;;;;;0.90;0.80;;;11.30;99.90;;;;;;5084112;28;20039;-40
2023/01/11 03:28:37;;;;;;;0.52;0.50;;;11.30;99.90;;;;;;5084109;28;20263;-39
2023/01/11 03:31:18;;;;;;;0.88;0.85;;;11.40;99.90;;;;;;5083710;28;20024;-32
2023/01/11 03:33:55;;;;;;;0.73;0.73;;;11.40;99.90;;;;;;5083340;28;20088;-39
2023/01/11 03:36:36;;;;;;;0.85;0.80;;;11.40;99.90;;;;;;5082581;28;20093;-39
2023/01/11 03:39:23;;;;;;;0.70;0.70;;;11.40;99.90;;;;;;5080221;28;20031;-39
2023/01/11 03:41:51;;;;;;;0.85;0.80;;;11.40;99.90;;;;;;5084015;28;20032;-39
2023/01/11 03:44:19;;;;;;;1.23;0.80;;;11.40;99.90;;;;;;5082182;28;20464;-38
2023/01/11 03:46:54;;;;;;;0.77;0.77;;;11.50;99.90;;;;;;5083192;28;20130;-38
2023/01/11 03:49:28;;;;;;;0.80;0.80;;;11.50;99.90;;;;;;5079651;28;20039;-40
2023/01/11 03:51:55;;;;;;;0.80;0.80;;;11.50;99.90;;;;;;5083539;28;20031;-37
2023/01/11 03:54:24;;;;;;;0.70;0.70;;;11.50;99.90;;;;;;5082813;28;20027;-37
2023/01/11 03:57:07;;;;;;;1.02;0.82;;;11.60;99.90;;;;;;5082653;28;20042;-36
2023/01/11 03:59:33;;;;;;;1.55;0.75;;;11.60;99.90;;;;;;5083123;28;20718;-39
2023/01/11 04:01:59;;;;;;;0.70;0.70;;;11.60;99.90;;;;;;5083898;28;20020;-38
2023/01/11 04:04:25;;;;;;;1.05;0.80;;;11.60;99.90;;;;;;5082699;28;20721;-38
2023/01/11 04:06:51;;;;;;;0.63;0.63;;;11.60;99.90;;;;;;5083613;28;20494;-39
2023/01/11 04:09:17;;;;;;;0.75;0.75;;;11.60;99.90;;;;;;5082385;28;20031;-37
2023/01/11 04:11:42;;;;;;;0.82;0.82;;;11.70;99.90;;;;;;5082360;28;20407;-38
2023/01/11 04:14:08;;;;;;;0.98;0.98;;;11.60;99.90;;;;;;5082651;28;20471;-38
2023/01/11 04:16:33;;;;;;;0.73;0.73;;;11.70;99.90;;;;;;5083336;28;20036;-37
2023/01/11 04:18:59;;;;;;;1.00;1.00;;;11.70;99.90;;;;;;5082490;28;20162;-39
2023/01/11 04:21:24;;;;;;;0.82;0.82;;;11.70;99.90;;;;;;5083122;28;20028;-39
2023/01/11 04:23:53;;;;;;;1.00;0.82;;;11.70;99.90;;;;;;5082989;28;20048;-40
2023/01/11 04:26:19;;;;;;;1.38;1.00;;;11.70;99.90;;;;;;5081755;28;20501;-39
2023/01/11 04:28:45;;;;;;;1.35;0.90;;;11.70;99.90;;;;;;5086825;28;20020;-36
2023/01/11 04:31:11;;;;;;;1.02;0.80;;;11.80;99.90;;;;;;5086641;28;20046;-36
2023/01/11 04:33:36;;;;;;;2.47;1.13;;;11.80;99.90;;;;;;5086778;28;20028;-36
2023/01/11 04:36:07;;;;;;;2.65;1.00;;;11.80;99.90;;;;;;5086358;28;20040;-40
2023/01/11 04:38:33;;;;;;;1.10;1.00;;;11.80;99.90;;;;;;5086974;28;20031;-37
2023/01/11 04:43:42;;;;;;;1.30;1.20;;;11.80;99.90;;;;;;5087496;28;20403;-39
2023/01/11 04:46:09;;;;;;;1.50;1.40;;;11.90;99.90;;;;;;5085554;28;20021;-38
2023/01/11 04:48:38;;;;;;;1.65;1.48;;;11.80;99.90;;;;;;5087507;28;20032;-39
2023/01/11 04:51:04;;;;;;;1.77;1.67;;;11.90;99.90;;;;;;5086853;28;20024;-36
2023/01/11 04:53:30;;;;;;;1.98;1.70;;;11.90;99.90;;;;;;5086048;28;20051;-39
2023/01/11 04:55:59;;;;;;;1.25;1.25;;;11.90;99.90;;;;;;5086703;28;20106;-39
2023/01/11 04:58:25;;;;;;;1.98;1.88;;;11.90;99.90;;;;;;5086885;28;20036;-38
2023/01/11 05:00:50;;;;;;;2.15;2.05;;;12.00;99.90;;;;;;5085807;28;20031;-39
2023/01/11 05:03:16;;;;;;;2.00;1.90;;;11.90;99.90;;;;;;5085707;28;20031;-39
2023/01/11 05:05:41;;;;;;;2.25;2.05;;;12.00;99.90;;;;;;5086339;28;20024;-35
2023/01/11 05:08:07;;;;;;;1.90;1.80;;;11.90;99.90;;;;;;5084990;28;20085;-40
2023/01/11 05:10:32;;;;;;;2.00;1.80;;;11.90;99.90;;;;;;5085900;28;20031;-37
2023/01/11 05:12:58;;;;;;;2.25;2.00;;;12.00;99.90;;;;;;5086870;28;20073;-39
2023/01/11 05:15:23;;;;;;;2.00;1.90;;;12.00;99.90;;;;;;5085462;28;20016;-38
2023/01/11 05:17:52;;;;;;;2.65;2.22;;;12.00;99.90;;;;;;5086856;28;20439;-39
2023/01/11 05:20:17;;;;;;;2.63;2.42;;;12.00;99.90;;;;;;5085751;28;20016;-39
2023/01/11 05:22:43;;;;;;;2.35;2.03;;;12.00;99.90;;;;;;5085204;28;20475;-38
2023/01/11 05:25:08;;;;;;;2.63;2.35;;;12.00;99.90;;;;;;5086198;28;20532;-39
2023/01/11 05:27:34;;;;;;;2.50;2.30;;;12.00;99.90;;;;;;5086353;28;20027;-38
2023/01/11 05:29:59;;;;;;;3.15;2.60;;;12.00;99.90;;;;;;5084651;28;20024;-36
2023/01/11 05:32:25;;;;;;;3.00;2.67;;;12.00;99.90;;;;;;5085667;28;20065;-37
2023/01/11 05:34:50;;;;;;;3.28;2.97;;;12.10;99.90;;;;;;5084887;28;20441;-38
2023/01/11 05:37:16;;;;;;;2.35;2.15;;;12.00;99.90;;;;;;5084841;28;20036;-39
2023/01/11 05:39:41;;;;;;;3.67;2.95;;;12.00;99.90;;;;;;5086159;28;20414;-39
2023/01/11 05:42:07;;;;;;;4.03;2.70;;;12.00;99.90;;;;;;5085418;28;20490;-37
2023/01/11 05:47:17;;;;;;;3.47;2.22;;;12.00;99.90;;;;;;5085264;28;20085;-41
2023/01/11 05:49:42;;;;;;;4.68;2.60;;;12.00;99.90;;;;;;5085659;28;20026;-40
2023/01/11 05:52:08;;;;;;;3.90;2.63;;;12.10;99.90;;;;;;5085920;28;20447;-41
2023/01/11 05:54:33;;;;;;;4.53;2.90;;;12.00;99.90;;;;;;5085697;28;20524;-40
2023/01/11 05:56:59;;;;;;;5.53;2.80;;;12.10;99.90;;;;;;5084609;28;20109;-38
2023/01/11 05:59:25;;;;;;;5.30;2.80;;;12.10;99.90;;;;;;5085092;28;20908;-39
2023/01/11 06:01:51;;;;;;;4.03;2.53;;;12.10;99.90;;;;;;5085193;28;20038;-40
2023/01/11 06:04:16;;;;;;;4.13;2.30;;;12.00;99.90;;;;;;5083620;28;20035;-36
2023/01/11 06:06:42;;;;;;;2.85;2.35;;;12.00;99.90;;;;;;5085238;28;20119;-38
2023/01/11 06:09:07;;;;;;;4.47;2.35;;;12.00;99.90;;;;;;5084607;28;20673;-37
2023/01/11 06:11:33;;;;;;;5.35;2.50;;;12.00;99.90;;;;;;5084062;28;20035;-39
2023/01/11 06:13:58;;;;;;;6.45;2.42;;;12.00;99.90;;;;;;5084845;28;20604;-40
2023/01/11 06:16:27;;;;;;;5.82;2.97;;;12.00;99.90;;;;;;5084919;28;20456;-37
2023/01/11 06:18:53;;;;;;;7.95;2.88;;;12.00;99.90;;;;;;5084250;28;20028;-38
2023/01/11 06:21:19;;;;;;;6.72;2.40;;;12.00;99.90;;;;;;5084335;28;20048;-38
2023/01/11 06:23:49;;;;;;;6.55;2.75;;;12.00;99.90;;;;;;5084422;28;20036;-39
2023/01/11 06:26:16;;;;;;;6.93;2.90;;;12.00;99.90;;;;;;5083592;28;20111;-38
2023/01/11 06:28:43;;;;;;;5.97;2.10;;;11.90;99.90;;;;;;5084557;28;20547;-39
2023/01/11 06:31:09;;;;;;;8.38;2.30;;;11.90;99.90;;;;;;5083722;28;20674;-41
2023/01/11 06:33:35;;;;;;;7.18;2.35;;;11.90;99.90;;;;;;5083848;28;20032;-40
2023/01/11 06:36:10;;;;;;;9.00;2.22;;;11.80;99.90;;;;;;5084210;28;20080;-39
2023/01/11 06:38:36;;;;;;;7.75;2.08;;;11.80;99.90;;;;;;5083244;28;20032;-39
2023/01/11 06:41:03;;;;;;;13.25;2.33;;;11.80;99.90;;;;;;5084015;28;20024;-38
2023/01/11 06:43:30;;;;;;;8.10;2.17;;;11.80;99.90;;;;;;5083884;28;20479;-39
2023/01/11 06:45:56;;;;;;;7.90;2.03;;;11.70;99.90;;;;;;5084162;28;20024;-39
2023/01/11 06:48:28;;;;;;;5.55;1.75;;;11.70;99.90;;;;;;5083726;28;20024;-39
2023/01/11 06:50:56;;;;;;;12.57;1.90;;;11.70;99.90;;;;;;5084034;28;20073;-40
2023/01/11 06:53:23;;;;;;;8.75;1.70;;;11.60;99.90;;;;;;5083730;28;20027;-40
2023/01/11 06:55:50;;;;;;;8.50;1.90;;;11.60;99.90;;;;;;5085621;28;20038;-40
2023/01/11 06:58:19;;;;;;;8.82;1.65;;;11.50;99.90;;;;;;5083961;28;20693;-39
2023/01/11 07:00:45;;;;;;;8.73;2.08;;;11.50;99.90;;;;;;5083034;28;20024;-39
2023/01/11 07:03:12;;;;;;;7.22;1.60;;;11.50;99.90;;;;;;5082459;28;20056;-40
2023/01/11 07:05:38;;;;;;;7.57;1.70;;;11.50;99.90;;;;;;5082092;28;20031;-39
2023/01/11 07:08:04;;;;;;;10.05;1.90;;;11.40;99.90;;;;;;5082933;28;20035;-39
2023/01/11 07:10:32;;;;;;;10.38;2.20;;;11.40;99.90;;;;;;5082948;28;20028;-40
2023/01/11 07:12:58;;;;;;;11.25;2.63;;;11.40;99.90;;;;;;5082567;28;20024;-39
2023/01/11 07:15:23;;;;;;;9.93;2.30;;;11.40;99.90;;;;;;5082076;28;20031;-40
2023/01/11 07:17:54;;;;;;;13.55;2.30;;;11.40;99.90;;;;;;5083265;28;20039;-38
2023/01/11 07:20:19;;;;;;;12.75;3.22;;;11.40;99.90;;;;;;5082769;28;20139;-39
2023/01/11 07:22:45;;;;;;;11.23;2.58;;;11.40;99.90;;;;;;5082552;28;20039;-38
2023/01/11 07:25:10;;;;;;;10.63;2.10;;;11.30;99.90;;;;;;5081844;28;20464;-39
2023/01/11 07:27:36;;;;;;;12.30;2.63;;;11.30;99.90;;;;;;5083456;28;20032;-40
2023/01/11 07:30:03;;;;;;;12.40;2.58;;;11.20;99.90;;;;;;5081211;28;20127;-38
2023/01/11 07:32:28;;;;;;;11.07;2.22;;;11.20;99.90;;;;;;5082251;28;20048;-37
2023/01/11 07:34:55;;;;;;;13.10;2.58;;;11.20;99.90;;;;;;5081612;28;20154;-39
2023/01/11 07:37:24;;;;;;;11.48;2.22;;;11.20;99.90;;;;;;5081922;28;20055;-38
2023/01/11 07:39:50;;;;;;;11.93;2.30;;;11.20;99.90;;;;;;5083482;28;20156;-40
2023/01/11 07:45:00;;;;;;;11.20;2.20;;;11.10;99.90;;;;;;5082734;28;20035;-37
2023/01/11 07:47:26;;;;;;;7.10;1.65;;;11.10;99.90;;;;;;5081989;28;20024;-37
2023/01/11 07:49:57;;;;;;;8.95;2.00;;;11.10;99.90;;;;;;5080622;28;20670;-39
2023/01/11 07:52:23;;;;;;;14.98;2.55;;;11.00;99.90;;;;;;5081010;28;20036;-40
2023/01/11 07:54:48;;;;;;;9.10;1.85;;;11.00;99.90;;;;;;5083409;28;20027;-40
2023/01/11 07:57:14;;;;;;;10.95;2.30;;;11.00;99.90;;;;;;5081621;28;20039;-40
2023/01/11 07:59:39;;;;;;;21.00;2.45;;;11.00;99.90;;;;;;5082933;28;20035;-38
2023/01/11 08:02:05;;;;;;;12.70;2.88;;;10.90;99.90;;;;;;5082118;28;20016;-39
2023/01/11 08:04:31;;;;;;;9.13;1.90;;;10.90;99.90;;;;;;5082300;28;20431;-39
2023/01/11 08:06:56;;;;;;;8.30;1.88;;;10.80;99.90;;;;;;5082675;28;20028;-38
2023/01/11 08:09:22;;;;;;;11.18;2.10;;;10.80;99.90;;;;;;5082645;28;20340;-40
2023/01/11 08:14:40;;;;;;;10.00;2.67;;;10.80;99.90;;;;;;5083442;28;20042;-39
2023/01/11 08:17:15;;;;;;;11.57;2.08;;;10.80;99.90;;;;;;5081575;28;20024;-38
2023/01/11 08:19:44;;;;;;;11.88;2.00;;;10.70;99.90;;;;;;5082465;28;20024;-39
2023/01/11 08:22:11;;;;;;;11.88;2.30;;;10.70;99.90;;;;;;5082263;28;20123;-39
2023/01/11 08:24:36;;;;;;;7.93;2.35;;;10.70;99.90;;;;;;5082123;28;20027;-38
2023/01/11 08:27:02;;;;;;;9.88;2.00;;;10.70;99.90;;;;;;5082028;28;20016;-39
2023/01/11 08:29:29;;;;;;;7.68;2.60;;;10.70;99.90;;;;;;5082296;28;20032;-39
2023/01/11 08:31:55;;;;;;;7.82;1.90;;;10.70;99.90;;;;;;5081985;28;20127;-39
2023/01/11 08:34:21;;;;;;;12.27;1.80;;;10.70;99.90;;;;;;5081937;28;20064;-39
2023/01/11 08:36:50;;;;;;;10.68;2.22;;;10.70;99.90;;;;;;5082001;28;20124;-37
2023/01/11 08:39:19;;;;;;;15.38;2.53;;;10.70;99.90;;;;;;5081372;28;20486;-36
2023/01/11 08:41:45;;;;;;;11.90;2.20;;;10.80;99.90;;;;;;5082545;28;20066;-36
2023/01/11 08:44:10;;;;;;;8.57;2.08;;;10.80;99.90;;;;;;5082498;28;20051;-36
2023/01/11 08:46:36;;;;;;;12.43;1.98;;;10.80;99.90;;;;;;5082334;28;20179;-35
2023/01/11 08:49:02;;;;;;;7.15;1.95;;;10.80;99.90;;;;;;5081212;28;20081;-35
2023/01/11 08:51:28;;;;;;;14.02;2.25;;;10.70;99.90;;;;;;5082696;28;20028;-39
2023/01/11 08:53:53;;;;;;;9.95;2.25;;;10.70;99.90;;;;;;5081991;28;20501;-36
2023/01/11 08:56:19;;;;;;;4.85;1.55;;;10.70;99.90;;;;;;5082289;28;20020;-39
2023/01/11 08:58:45;;;;;;;11.88;1.95;;;10.70;99.90;;;;;;5081760;28;20026;-38
2023/01/11 09:01:11;;;;;;;12.55;3.00;;;10.70;99.90;;;;;;5081083;28;20107;-40
2023/01/11 09:03:36;;;;;;;15.50;2.58;;;10.60;99.90;;;;;;5081746;28;20471;-36
2023/01/11 09:06:02;;;;;;;12.10;2.22;;;10.50;99.90;;;;;;5082355;28;20098;-40
2023/01/11 09:08:28;;;;;;;7.32;2.15;;;10.50;99.90;;;;;;5081572;28;20050;-40
2023/01/11 09:10:55;;;;;;;7.38;1.67;;;10.40;99.90;;;;;;5082265;28;20032;-41
2023/01/11 09:13:21;;;;;;;8.63;2.20;;;10.40;99.90;;;;;;5082109;28;20224;-37
2023/01/11 09:15:47;;;;;;;13.02;2.67;;;10.30;99.90;;;;;;5085344;28;20496;-37
2023/01/11 09:18:15;;;;;;;11.25;2.13;;;10.30;99.90;;;;;;5085232;28;20213;-38
2023/01/11 09:20:44;;;;;;;9.25;2.05;;;10.30;99.90;;;;;;5085305;28;20027;-39
2023/01/11 09:23:09;;;;;;;9.55;2.17;;;10.30;99.90;;;;;;5085431;28;20059;-37
2023/01/11 09:25:35;;;;;;;6.93;2.03;;;10.30;99.90;;;;;;5085247;28;20024;-37
2023/01/11 09:28:00;;;;;;;11.27;2.03;;;10.30;99.90;;;;;;5084547;28;20023;-38
2023/01/11 09:30:26;;;;;;;10.43;2.20;;;10.30;99.90;;;;;;5085259;28;20028;-40
2023/01/11 09:32:55;;;;;;;12.38;2.65;;;10.30;99.90;;;;;;5086068;28;20051;-40
2023/01/11 09:35:21;;;;;;;11.25;2.35;;;10.30;99.90;;;;;;5084635;28;20027;-39
2023/01/11 09:37:52;;;;;;;11.30;2.20;;;10.30;99.90;;;;;;5084230;28;20040;-39
2023/01/11 09:40:22;;;;;;;11.77;2.20;;;10.20;99.90;;;;;;5085239;28;20069;-39
2023/01/11 09:42:51;;;;;;;9.90;1.90;;;10.20;99.90;;;;;;5085725;28;20028;-39
2023/01/11 09:45:29;;;;;;;11.10;2.53;;;10.10;99.90;;;;;;5085116;28;20031;-40
2023/01/11 09:48:11;;;;;;;15.52;2.10;;;10.10;99.90;;;;;;5085387;28;20036;-39
2023/01/11 09:50:42;;;;;;;10.80;1.75;;;10.00;99.90;;;;;;5084616;28;20038;-39
2023/01/11 09:53:26;;;;;;;7.63;2.00;;;10.00;99.90;;;;;;5085302;28;20028;-40
2023/01/11 09:55:56;;;;;;;7.85;2.00;;;10.00;99.90;;;;;;5084795;28;20104;-37
2023/01/11 09:58:57;;;;;;;11.30;3.05;;;10.00;99.90;;;;;;5066092;28;20029;-38
2023/01/11 10:01:52;;;;;;;11.13;1.98;;;10.00;99.90;;;;;;5066839;28;20048;-39
2023/01/11 10:04:36;;;;;;;11.35;2.08;;;9.90;99.90;;;;;;5084776;28;20020;-38
2023/01/11 10:07:48;;;;;;;9.07;2.05;;;9.90;99.90;;;;;;5082492;28;20027;-39
2023/01/11 10:10:23;;;;;;;12.82;2.10;;;9.90;99.90;;;;;;5083994;28;20020;-38
2023/01/11 10:13:04;;;;;;;11.20;2.45;;;9.90;99.90;;;;;;5084802;28;20036;-39
2023/01/11 10:15:34;;;;;;;15.38;2.45;;;9.90;99.90;;;;;;5084685;28;20050;-36
2023/01/11 10:18:06;;;;;;;8.98;2.15;;;9.90;99.90;;;;;;5083338;28;20716;-39
2023/01/11 10:20:42;;;;;;;16.90;3.40;;;10.00;99.90;;;;;;5084012;28;20077;-37
2023/01/11 10:23:23;;;;;;;13.43;2.70;;;10.00;99.90;;;;;;5084499;28;20039;-40
2023/01/11 10:25:54;;;;;;;12.55;2.63;;;10.10;99.90;;;;;;5083113;28;20127;-37
2023/01/11 10:28:44;;;;;;;9.70;2.40;;;10.10;99.90;;;;;;5084140;28;20841;-39
2023/01/11 10:31:47;;;;;;;9.98;2.10;;;10.10;99.90;;;;;;5082813;28;20112;-36
2023/01/11 10:40:30;;;;;;;11.65;3.25;;;10.30;99.90;;;;;;5064823;28;20511;-39
2023/01/11 10:43:30;;;;;;;11.95;2.60;;;10.40;99.90;;;;;;5084601;28;20031;-38
2023/01/11 10:46:04;;;;;;;13.95;2.47;;;10.40;99.90;;;;;;5079898;28;20039;-39
2023/01/11 10:48:34;;;;;;;16.05;3.35;;;10.50;99.90;;;;;;5084695;28;20016;-38
2023/01/11 10:51:11;;;;;;;12.10;2.40;;;10.50;99.90;;;;;;5083813;28;20085;-39
2023/01/11 10:53:42;;;;;;;10.90;3.00;;;10.40;99.90;;;;;;5081743;28;20051;-38
2023/01/11 10:56:44;;;;;;;13.30;2.83;;;10.50;99.90;;;;;;5084042;28;20024;-39
2023/01/11 10:59:19;;;;;;;16.60;2.72;;;10.50;99.90;;;;;;5000024;28;20668;-39
2023/01/11 11:01:53;;;;;;;14.57;2.65;;;10.60;99.90;;;;;;5072280;28;20036;-38
2023/01/11 11:04:27;;;;;;;7.97;2.13;;;10.60;99.90;;;;;;5072949;28;20259;-34
2023/01/11 11:07:10;;;;;;;13.50;2.85;;;10.60;99.90;;;;;;5083516;28;20035;-39
2023/01/11 11:10:05;;;;;;;16.85;3.50;;;10.70;99.90;;;;;;5074150;28;20027;-40
2023/01/11 11:12:41;;;;;;;11.80;2.28;;;10.60;99.90;;;;;;5084012;28;20028;-37
2023/01/11 11:15:40;;;;;;;9.48;2.17;;;10.70;99.90;;;;;;5082872;28;20028;-39
2023/01/11 11:18:06;;;;;;;10.98;2.60;;;10.70;99.90;;;;;;5082890;28;20032;-37
2023/01/11 11:20:33;;;;;;;15.30;2.80;;;10.80;99.90;;;;;;5082999;28;20659;-38
2023/01/11 11:22:59;;;;;;;15.23;2.83;;;10.70;99.90;;;;;;5082800;28;20771;-40
2023/01/11 11:25:36;;;;;;;16.23;3.25;;;10.80;99.90;;;;;;5083632;28;20107;-39
2023/01/11 11:28:21;;;;;;;14.80;2.67;;;10.80;99.90;;;;;;5082493;28;20024;-36
2023/01/11 11:30:50;;;;;;;15.85;2.92;;;10.80;99.90;;;;;;5083746;28;20375;-40
2023/01/11 11:33:34;;;;;;;10.60;2.22;;;10.70;99.90;;;;;;5082247;28;20043;-39
2023/01/11 11:36:03;;;;;;;14.30;2.33;;;10.80;99.90;;;;;;5078722;28;20429;-40
2023/01/11 11:38:31;;;;;;;15.57;2.55;;;10.70;99.90;;;;;;5083284;28;20032;-38
2023/01/11 11:41:02;;;;;;;15.48;2.70;;;10.70;99.90;;;;;;5082162;28;20027;-39
2023/01/11 11:43:31;;;;;;;8.73;2.25;;;10.80;99.90;;;;;;5083742;28;20145;-36
2023/01/11 11:46:00;;;;;;;10.73;1.98;;;10.80;99.90;;;;;;5083060;28;20047;-38
2023/01/11 11:48:31;;;;;;;14.77;2.67;;;10.90;99.90;;;;;;5082513;28;20047;-40
2023/01/11 11:50:59;;;;;;;15.32;2.83;;;10.90;99.90;;;;;;5083334;28;20479;-40
2023/01/11 11:53:25;;;;;;;10.25;2.60;;;10.90;99.90;;;;;;5083209;28;20069;-40
2023/01/11 11:55:52;;;;;;;14.52;2.70;;;10.90;99.90;;;;;;5082637;28;20383;-38
2023/01/11 11:58:20;;;;;;;15.43;2.65;;;10.80;99.90;;;;;;5082817;28;20032;-39
2023/01/11 12:00:51;;;;;;;16.85;2.90;;;10.80;99.90;;;;;;5083165;28;20020;-34
2023/01/11 12:03:29;;;;;;;13.85;3.13;;;10.80;99.90;;;;;;5081962;28;20092;-35
2023/01/11 12:06:02;;;;;;;15.50;3.08;;;10.80;99.90;;;;;;5082909;28;20050;-33
2023/01/11 12:08:30;;;;;;;11.90;2.70;;;10.80;99.90;;;;;;5083533;28;20028;-37
2023/01/11 12:11:01;;;;;;;16.77;3.10;;;10.80;99.90;;;;;;5081233;28;20024;-38
2023/01/11 12:13:38;;;;;;;13.75;2.55;;;10.90;99.90;;;;;;5082982;28;20052;-40
2023/01/11 12:16:19;;;;;;;13.23;2.90;;;11.00;99.90;;;;;;5080558;28;20016;-38
2023/01/11 12:18:45;;;;;;;13.73;3.05;;;11.00;99.90;;;;;;5082546;28;20036;-38
2023/01/11 12:21:25;;;;;;;12.25;2.83;;;11.10;99.90;;;;;;5082138;28;20019;-39
2023/01/11 12:24:22;;;;;;;13.27;2.85;;;11.10;99.90;;;;;;5082031;28;20399;-36
2023/01/11 12:27:16;;;;;;;13.27;2.85;;;11.20;99.90;;;;;;5081634;28;20043;-39
2023/01/11 12:30:12;;;;;;;13.25;2.42;;;11.20;99.90;;;;;;5082661;28;20063;-40
2023/01/11 12:32:56;;;;;;;15.07;2.97;;;11.20;99.90;;;;;;5075103;28;20067;-40
2023/01/11 12:35:28;;;;;;;8.35;2.30;;;11.20;99.90;;;;;;5082901;28;20170;-39
2023/01/11 12:38:17;;;;;;;10.40;2.60;;;11.20;99.90;;;;;;5082217;28;20067;-36
2023/01/11 12:41:13;;;;;;;10.95;2.17;;;11.20;99.90;;;;;;5089929;28;20023;-39
2023/01/11 12:44:08;;;;;;;14.50;3.08;;;11.20;99.90;;;;;;5082322;28;20482;-38
2023/01/11 12:47:01;;;;;;;21.33;2.90;;;11.20;99.90;;;;;;5082081;28;20824;-37
2023/01/11 12:49:47;;;;;;;11.43;2.00;;;11.20;99.90;;;;;;5065344;28;20025;-39
2023/01/11 12:52:40;;;;;;;13.57;2.65;;;11.10;99.90;;;;;;5084723;28;20032;-34
2023/01/11 12:55:40;;;;;;;7.03;1.80;;;11.10;99.90;;;;;;5085845;28;20034;-37
2023/01/11 12:58:13;;;;;;;12.52;2.50;;;11.20;99.90;;;;;;5074952;28;20483;-41
2023/01/11 13:00:47;;;;;;;13.30;2.58;;;11.20;99.90;;;;;;5086148;28;20032;-36
2023/01/11 13:03:46;;;;;;;11.98;2.40;;;11.30;99.90;;;;;;5086232;28;20023;-39
2023/01/11 13:06:28;;;;;;;12.13;2.90;;;11.30;99.90;;;;;;5084963;28;20069;-39
2023/01/11 13:09:21;;;;;;;14.68;2.70;;;11.30;99.90;;;;;;5086211;28;20035;-38
2023/01/11 13:11:47;;;;;;;10.00;2.53;;;11.30;99.90;;;;;;5086003;28;20382;-39
2023/01/11 13:14:41;;;;;;;13.15;2.72;;;11.30;99.90;;;;;;5084797;28;20032;-39
2023/01/11 13:17:18;;;;;;;12.05;2.60;;;11.30;99.90;;;;;;5085030;28;20454;-40
2023/01/11 13:20:11;;;;;;;12.98;2.65;;;11.30;99.90;;;;;;5084583;28;20101;-38
2023/01/11 13:22:42;;;;;;;10.38;2.83;;;11.30;99.90;;;;;;5085908;28;20168;-39
2023/01/11 13:25:23;;;;;;;14.38;2.60;;;11.30;99.90;;;;;;5085468;28;20183;-39
2023/01/11 13:27:50;;;;;;;24.55;8.65;;;11.20;99.90;;;;;;5084874;28;20032;-38
2023/01/11 13:30:18;;;;;;;17.73;6.60;;;11.30;99.90;;;;;;5085256;28;20349;-38
2023/01/11 13:32:57;;;;;;;11.77;4.78;;;11.30;99.90;;;;;;5085644;28;20500;-38
2023/01/11 13:35:51;;;;;;;12.80;3.53;;;11.30;99.90;;;;;;5084866;28;20512;-39
2023/01/11 13:38:46;;;;;;;14.45;2.75;;;11.30;99.90;;;;;;5076177;28;20048;-37
2023/01/11 13:41:27;;;;;;;15.85;3.22;;;11.40;99.90;;;;;;5064081;28;20036;-38
2023/01/11 13:44:09;;;;;;;10.50;2.30;;;11.30;99.90;;;;;;5084847;28;20073;-39